Time;durP1;ratioP1;P1;durP2;ratioP2;P2;SDS_P1;SDS_P2;PMS_P1;PMS_P2;Temp;Humidity;BMP_temperature;BMP_pressure;BME280_temperature;BME280_humidity;BME280_pressure;Samples;Min_cycle;Max_cycle;Signal;HPM_P1;HPM_P2
2021/07/15 00:04:56;;;;;;;34.95;18.50;;;;;16.50;100793.00;;;;10450109;28;20190;-80
2021/07/15 00:09:58;;;;;;;48.03;24.83;;;;;16.50;100808.00;;;;10444349;28;20646;-79
2021/07/15 00:15:03;;;;;;;41.08;22.67;;;;;16.50;100797.00;;;;10420552;28;20204;-79
2021/07/15 00:20:10;;;;;;;48.08;24.88;;;;;16.50;100814.00;;;;10407378;28;20196;-79
2021/07/15 00:25:16;;;;;;;48.97;23.77;;;;;16.50;100800.00;;;;10448551;28;20191;-78
2021/07/15 00:30:18;;;;;;;40.88;20.00;;;;;16.50;100797.00;;;;10425630;28;20194;-79
2021/07/15 00:35:20;;;;;;;35.15;20.73;;;;;16.50;100784.00;;;;10432834;28;20209;-80
2021/07/15 00:40:22;;;;;;;44.33;22.98;;;;;16.40;100801.00;;;;10428660;28;20190;-79
2021/07/15 00:45:24;;;;;;;57.95;26.13;;;;;16.40;100802.00;;;;10432002;28;20219;-79
2021/07/15 00:50:26;;;;;;;33.13;18.55;;;;;16.40;100801.00;;;;10422422;28;20190;-79
2021/07/15 00:55:32;;;;;;;46.15;22.67;;;;;16.40;100803.00;;;;10448418;28;20669;-78
2021/07/15 01:00:35;;;;;;;43.28;20.65;;;;;16.40;100804.00;;;;10425368;28;20679;-79
2021/07/15 01:05:41;;;;;;;46.95;24.50;;;;;16.40;100827.00;;;;10428014;28;20321;-77
2021/07/15 01:10:48;;;;;;;48.65;23.52;;;;;16.40;100813.00;;;;10444229;28;20197;-78
2021/07/15 01:16:15;;;;;;;38.63;22.70;;;;;16.40;100793.00;;;;10445432;28;20205;-79
2021/07/15 01:21:55;;;;;;;47.72;22.42;;;;;16.40;100806.00;;;;10412206;28;20661;-78
2021/07/15 01:27:17;;;;;;;41.05;23.70;;;;;16.40;100808.00;;;;10457578;28;20270;-79
2021/07/15 01:32:25;;;;;;;37.00;21.15;;;;;16.40;100826.00;;;;10444750;28;20213;-79
2021/07/15 01:37:29;;;;;;;43.28;22.75;;;;;16.40;100810.00;;;;10410594;28;20643;-79
2021/07/15 01:42:32;;;;;;;46.30;22.95;;;;;16.40;100815.00;;;;10435497;28;20194;-78
2021/07/15 01:47:34;;;;;;;35.38;19.70;;;;;16.40;100827.00;;;;10424825;28;20186;-79
2021/07/15 01:52:36;;;;;;;38.03;22.58;;;;;16.40;100808.00;;;;10434183;28;20194;-79
2021/07/15 01:57:41;;;;;;;42.60;22.30;;;;;16.40;100819.00;;;;10419218;28;20668;-79
2021/07/15 02:02:44;;;;;;;38.22;18.08;;;;;16.40;100827.00;;;;10405582;28;20198;-79
2021/07/15 02:07:47;;;;;;;45.25;25.38;;;;;16.40;100816.00;;;;10436248;28;20190;-79
2021/07/15 02:12:50;;;;;;;30.08;16.42;;;;;16.40;100796.00;;;;10437992;28;20287;-79
2021/07/15 02:17:53;;;;;;;52.53;25.98;;;;;16.40;100818.00;;;;10422193;28;20189;-78
2021/07/15 02:22:58;;;;;;;46.13;24.05;;;;;16.30;100797.00;;;;10427114;28;20196;-79
2021/07/15 02:28:01;;;;;;;47.38;22.67;;;;;16.30;100800.00;;;;10439499;28;20185;-78
2021/07/15 02:33:10;;;;;;;50.20;23.45;;;;;16.30;100794.00;;;;10430443;28;20235;-80
2021/07/15 02:38:15;;;;;;;63.53;28.63;;;;;16.30;100795.00;;;;10450295;28;20190;-78
2021/07/15 02:43:18;;;;;;;55.95;26.63;;;;;16.30;100786.00;;;;10438387;28;20267;-78
2021/07/15 02:48:21;;;;;;;55.90;24.45;;;;;16.30;100783.00;;;;10438061;28;20190;-78
2021/07/15 02:53:22;;;;;;;45.25;25.13;;;;;16.30;100797.00;;;;10405005;28;20798;-78
2021/07/15 02:58:33;;;;;;;55.45;29.45;;;;;16.30;100798.00;;;;10409025;28;20197;-78
2021/07/15 03:03:54;;;;;;;52.25;27.35;;;;;16.30;100800.00;;;;10421670;28;20563;-80
2021/07/15 03:09:01;;;;;;;53.30;30.02;;;;;16.30;100800.00;;;;10420545;28;20561;-80
2021/07/15 03:14:05;;;;;;;48.47;24.10;;;;;16.30;100765.00;;;;10448460;28;20224;-80
2021/07/15 03:19:09;;;;;;;54.75;28.27;;;;;16.30;100789.00;;;;10440962;28;20277;-80
2021/07/15 03:24:12;;;;;;;65.57;32.33;;;;;16.30;100838.00;;;;10457443;28;20277;-79
2021/07/15 03:29:15;;;;;;;46.35;23.90;;;;;16.30;100835.00;;;;10452215;28;20930;-78
2021/07/15 03:34:17;;;;;;;52.70;27.52;;;;;16.30;100844.00;;;;10461369;28;20230;-78
2021/07/15 03:39:20;;;;;;;50.00;28.73;;;;;16.30;100851.00;;;;10410366;28;20197;-79
2021/07/15 03:44:23;;;;;;;48.72;27.25;;;;;16.30;100855.00;;;;10396640;28;20719;-78
2021/07/15 03:49:29;;;;;;;56.10;28.10;;;;;16.30;100849.00;;;;10451743;28;20201;-78
2021/07/15 03:54:31;;;;;;;51.75;27.02;;;;;16.30;100830.00;;;;10426526;28;20233;-79
2021/07/15 03:59:43;;;;;;;42.80;25.45;;;;;16.30;100843.00;;;;10435415;28;20185;-80
2021/07/15 04:04:53;;;;;;;44.47;22.73;;;;;16.30;100856.00;;;;10448120;28;20186;-79
2021/07/15 04:09:57;;;;;;;52.30;26.42;;;;;16.30;100845.00;;;;10407435;28;20182;-78
2021/07/15 04:15:12;;;;;;;45.60;25.02;;;;;16.30;100834.00;;;;10426854;28;20205;-79
2021/07/15 04:20:17;;;;;;;45.97;25.48;;;;;16.30;100847.00;;;;10426782;28;20189;-79
2021/07/15 04:25:21;;;;;;;44.75;24.85;;;;;16.30;100823.00;;;;10439096;28;20185;-79
2021/07/15 04:30:23;;;;;;;56.90;29.90;;;;;16.30;100866.00;;;;10422747;28;20186;-79
2021/07/15 04:35:27;;;;;;;49.67;25.00;;;;;16.30;100867.00;;;;10425663;28;20202;-79
2021/07/15 04:40:31;;;;;;;40.72;22.08;;;;;16.20;100865.00;;;;10420869;28;20195;-79
2021/07/15 04:45:36;;;;;;;44.22;21.95;;;;;16.20;100895.00;;;;10422459;28;20205;-79
2021/07/15 04:50:38;;;;;;;44.58;25.85;;;;;16.30;100884.00;;;;10442717;28;20661;-81
2021/07/15 04:55:41;;;;;;;44.47;26.98;;;;;16.30;100903.00;;;;10430470;28;20596;-79
2021/07/15 05:00:43;;;;;;;56.55;30.45;;;;;16.30;100905.00;;;;10425615;28;20190;-79
2021/07/15 05:05:45;;;;;;;51.13;25.98;;;;;16.30;100892.00;;;;10442337;28;20190;-79
2021/07/15 05:10:47;;;;;;;49.47;28.08;;;;;16.30;100892.00;;;;10411857;28;20984;-80
2021/07/15 05:15:50;;;;;;;46.22;22.65;;;;;16.30;100897.00;;;;10443626;28;20752;-79
2021/07/15 05:20:52;;;;;;;49.50;26.30;;;;;16.30;100891.00;;;;10421843;28;20199;-80
2021/07/15 05:25:56;;;;;;;39.17;23.08;;;;;16.30;100870.00;;;;10426813;28;20650;-79
2021/07/15 05:30:57;;;;;;;37.97;23.17;;;;;16.30;100886.00;;;;10429246;28;20193;-79
2021/07/15 05:35:59;;;;;;;42.78;24.80;;;;;16.30;100900.00;;;;10429564;28;20210;-79
2021/07/15 05:41:01;;;;;;;37.88;22.05;;;;;16.30;100877.00;;;;10464020;28;20287;-80
2021/07/15 05:46:04;;;;;;;47.37;27.23;;;;;16.30;100885.00;;;;10425543;28;20190;-79
2021/07/15 05:51:06;;;;;;;44.30;25.42;;;;;16.30;100874.00;;;;10448552;28;20197;-80
2021/07/15 05:56:08;;;;;;;48.17;25.95;;;;;16.40;100855.00;;;;10405863;28;20673;-79
2021/07/15 06:01:10;;;;;;;39.53;22.85;;;;;16.40;100867.00;;;;10421749;28;20194;-79
2021/07/15 06:06:12;;;;;;;38.58;24.13;;;;;16.40;100906.00;;;;10429372;28;20281;-79
2021/07/15 06:11:14;;;;;;;40.63;22.42;;;;;16.40;100894.00;;;;10432775;28;20185;-80
2021/07/15 06:16:16;;;;;;;44.45;24.42;;;;;16.50;100887.00;;;;10439464;28;20218;-80
2021/07/15 06:21:18;;;;;;;48.75;27.10;;;;;16.50;100890.00;;;;10429032;28;20194;-78
2021/07/15 06:26:20;;;;;;;45.65;26.73;;;;;16.50;100874.00;;;;10445115;28;20740;-80
2021/07/15 06:31:22;;;;;;;53.97;26.88;;;;;16.60;100896.00;;;;10464236;28;20190;-79
2021/07/15 06:36:25;;;;;;;38.42;20.58;;;;;16.60;100889.00;;;;10440277;28;20978;-78
2021/07/15 06:41:27;;;;;;;44.88;26.02;;;;;16.70;100901.00;;;;10446708;28;20213;-79
2021/07/15 06:46:30;;;;;;;40.17;21.38;;;;;16.70;100894.00;;;;10442316;28;20202;-78
2021/07/15 06:51:34;;;;;;;45.45;23.67;;;;;16.60;100911.00;;;;10444261;28;20186;-79
2021/07/15 06:56:36;;;;;;;45.53;23.80;;;;;16.60;100909.00;;;;10457093;28;20285;-80
2021/07/15 07:01:38;;;;;;;60.28;29.48;;;;;16.60;100905.00;;;;10438260;28;20198;-80
2021/07/15 07:06:40;;;;;;;50.97;27.30;;;;;16.60;100901.00;;;;10433232;28;20197;-79
2021/07/15 07:11:42;;;;;;;41.20;23.75;;;;;16.60;100903.00;;;;10423268;28;20194;-80
2021/07/15 07:16:44;;;;;;;40.92;24.10;;;;;16.80;100903.00;;;;10455108;28;20228;-80
2021/07/15 07:21:46;;;;;;;45.10;26.05;;;;;16.80;100914.00;;;;10439692;28;20200;-79
2021/07/15 07:26:48;;;;;;;38.80;21.55;;;;;16.90;100923.00;;;;10420411;28;21002;-79
2021/07/15 07:31:50;;;;;;;33.75;20.25;;;;;16.90;100917.00;;;;10401051;28;20585;-79
2021/07/15 07:36:53;;;;;;;39.40;20.58;;;;;16.80;100913.00;;;;10426808;28;20297;-78
2021/07/15 07:41:55;;;;;;;44.72;21.27;;;;;16.80;100919.00;;;;10430907;28;20193;-80
2021/07/15 07:46:58;;;;;;;46.85;25.25;;;;;16.80;100922.00;;;;10418016;28;20186;-79
2021/07/15 07:52:02;;;;;;;37.30;22.67;;;;;16.70;100921.00;;;;10419984;28;20233;-79
2021/07/15 07:57:04;;;;;;;49.97;25.77;;;;;16.70;100936.00;;;;10403608;28;20217;-79
2021/07/15 08:02:07;;;;;;;43.63;24.52;;;;;16.60;100952.00;;;;10441011;28;20191;-79
2021/07/15 08:07:13;;;;;;;35.78;23.35;;;;;16.60;100959.00;;;;10406901;28;20194;-79
2021/07/15 08:12:16;;;;;;;48.83;27.33;;;;;16.50;100966.00;;;;10397559;28;20205;-79
2021/07/15 08:17:18;;;;;;;48.58;27.63;;;;;16.50;100971.00;;;;10420920;28;20200;-79
2021/07/15 08:22:20;;;;;;;44.13;24.58;;;;;16.50;100975.00;;;;10443375;28;20195;-81
2021/07/15 08:27:22;;;;;;;45.08;27.63;;;;;16.50;100994.00;;;;10434631;28;20669;-79
2021/07/15 08:32:24;;;;;;;44.70;28.48;;;;;16.50;100992.00;;;;10441319;28;20214;-79
2021/07/15 08:37:26;;;;;;;39.40;26.95;;;;;16.50;101003.00;;;;10409070;28;20569;-79
2021/07/15 08:42:28;;;;;;;52.92;31.48;;;;;16.50;101027.00;;;;10464584;28;20239;-82
2021/07/15 08:47:30;;;;;;;48.90;29.92;;;;;16.60;101029.00;;;;10425704;28;20193;-81
2021/07/15 08:52:34;;;;;;;38.40;25.60;;;;;16.60;101023.00;;;;10431028;28;20235;-80
2021/07/15 08:57:38;;;;;;;38.65;26.67;;;;;16.60;101034.00;;;;10430190;28;20208;-79
2021/07/15 09:02:40;;;;;;;39.85;25.67;;;;;16.50;101030.00;;;;10411394;28;20186;-78
2021/07/15 09:07:47;;;;;;;42.50;26.38;;;;;16.50;101033.00;;;;10439364;28;20198;-78
2021/07/15 09:12:49;;;;;;;36.60;25.05;;;;;16.50;101022.00;;;;10420313;28;20237;-80
2021/07/15 09:17:51;;;;;;;37.40;24.67;;;;;16.50;101041.00;;;;10423128;28;20213;-78
2021/07/15 09:23:05;;;;;;;32.15;22.75;;;;;16.40;101032.00;;;;10460265;28;20552;-79
2021/07/15 09:28:10;;;;;;;36.85;24.73;;;;;16.50;101034.00;;;;10429002;28;20190;-78
2021/07/15 09:33:15;;;;;;;34.60;25.67;;;;;16.60;101035.00;;;;10444488;28;20213;-78
2021/07/15 09:38:25;;;;;;;42.67;28.00;;;;;16.70;101047.00;;;;10422512;28;20197;-79
2021/07/15 09:43:29;;;;;;;48.83;26.98;;;;;16.70;101040.00;;;;10447608;28;20206;-79
2021/07/15 09:48:31;;;;;;;41.58;28.75;;;;;16.90;101046.00;;;;10439731;28;20204;-78
2021/07/15 09:53:36;;;;;;;49.80;28.83;;;;;16.90;101047.00;;;;10442030;28;20620;-78
2021/07/15 09:58:47;;;;;;;49.08;29.23;;;;;16.90;101052.00;;;;10421833;28;20646;-78
2021/07/15 10:04:09;;;;;;;50.97;30.48;;;;;16.80;101061.00;;;;10444178;28;20220;-78
2021/07/15 10:09:26;;;;;;;46.13;30.10;;;;;16.80;101063.00;;;;10430030;28;20259;-77
2021/07/15 10:14:38;;;;;;;39.70;27.42;;;;;16.90;101066.00;;;;10435841;28;20197;-78
2021/07/15 10:19:43;;;;;;;42.53;26.85;;;;;16.90;101067.00;;;;10434053;28;20280;-79
2021/07/15 10:24:45;;;;;;;45.28;27.63;;;;;17.00;101067.00;;;;10429667;28;20190;-78
2021/07/15 10:29:47;;;;;;;38.53;26.75;;;;;17.00;101081.00;;;;10428916;28;20189;-78
2021/07/15 10:34:52;;;;;;;45.05;23.80;;;;;16.90;101080.00;;;;10448901;28;20213;-78
2021/07/15 10:39:54;;;;;;;33.30;22.48;;;;;16.80;101083.00;;;;10447608;28;20194;-79
2021/07/15 10:44:57;;;;;;;29.33;19.90;;;;;16.70;101090.00;;;;10413288;28;20197;-77
2021/07/15 10:50:00;;;;;;;36.78;23.00;;;;;16.70;101102.00;;;;10425542;28;20197;-77
2021/07/15 10:55:04;;;;;;;34.67;23.63;;;;;16.70;101110.00;;;;10398349;28;20202;-78
2021/07/15 11:00:23;;;;;;;37.38;23.98;;;;;16.70;101104.00;;;;10419052;28;20498;-78
2021/07/15 11:05:28;;;;;;;34.08;23.17;;;;;16.60;101094.00;;;;10443507;28;20189;-78
2021/07/15 11:10:34;;;;;;;41.75;25.48;;;;;16.60;101115.00;;;;10428471;28;20777;-77
2021/07/15 11:15:55;;;;;;;40.33;23.77;;;;;16.60;101114.00;;;;10442485;28;20240;-79
2021/07/15 11:21:20;;;;;;;36.75;22.77;;;;;16.70;101122.00;;;;10427634;28;20190;-78
2021/07/15 11:26:27;;;;;;;39.92;25.17;;;;;16.70;101123.00;;;;10426726;28;20641;-77
2021/07/15 11:31:43;;;;;;;33.92;24.38;;;;;16.60;101124.00;;;;10440453;28;20201;-78
2021/07/15 11:36:45;;;;;;;39.78;25.50;;;;;16.80;101112.00;;;;10438062;28;20206;-79
2021/07/15 11:41:50;;;;;;;40.00;26.50;;;;;16.70;101127.00;;;;10436654;28;20182;-78
2021/07/15 11:46:52;;;;;;;43.63;26.27;;;;;16.70;101136.00;;;;10446124;28;20597;-78
2021/07/15 11:51:55;;;;;;;43.97;27.15;;;;;16.90;101132.00;;;;10451418;28;20649;-78
2021/07/15 11:57:12;;;;;;;46.88;30.13;;;;;17.10;101133.00;;;;10446954;28;20214;-77
2021/07/15 12:02:24;;;;;;;48.35;29.85;;;;;17.00;101144.00;;;;10422691;28;20573;-77
2021/07/15 12:07:26;;;;;;;45.47;27.55;;;;;16.80;101153.00;;;;10427882;28;20194;-77
2021/07/15 12:12:29;;;;;;;46.20;27.45;;;;;16.80;101155.00;;;;10443588;28;20197;-77
2021/07/15 12:17:36;;;;;;;43.55;29.40;;;;;16.80;101151.00;;;;10438044;28;20324;-77
2021/07/15 12:22:46;;;;;;;48.25;30.33;;;;;16.90;101157.00;;;;10439387;28;20687;-76
2021/07/15 12:27:54;;;;;;;44.40;28.50;;;;;17.00;101174.00;;;;10438162;28;20198;-77
2021/07/15 12:33:00;;;;;;;47.55;28.75;;;;;17.00;101168.00;;;;10450693;28;20645;-77
2021/07/15 12:38:26;;;;;;;46.25;28.80;;;;;17.00;101170.00;;;;10475570;28;20198;-77
2021/07/15 12:43:28;;;;;;;47.28;29.88;;;;;17.10;101175.00;;;;10419171;28;20201;-76
2021/07/15 12:48:42;;;;;;;50.35;29.85;;;;;17.10;101173.00;;;;10458049;28;20609;-77
2021/07/15 12:53:46;;;;;;;48.22;29.38;;;;;17.00;101190.00;;;;10452304;28;20201;-77
2021/07/15 12:59:09;;;;;;;49.28;29.42;;;;;17.10;101181.00;;;;10461286;28;20189;-78
2021/07/15 13:04:19;;;;;;;39.95;26.33;;;;;17.00;101176.00;;;;10483097;28;20214;-77
2021/07/15 13:09:36;;;;;;;54.00;28.27;;;;;17.40;101181.00;;;;10512777;28;20181;-78
2021/07/15 13:14:43;;;;;;;48.30;25.48;;;;;17.80;101162.00;;;;10472810;28;20240;-77
2021/07/15 13:19:47;;;;;;;41.05;25.52;;;;;17.60;101176.00;;;;10477034;28;20742;-78
2021/07/15 13:25:00;;;;;;;38.40;25.00;;;;;17.70;101180.00;;;;10470364;28;20212;-78
2021/07/15 13:30:04;;;;;;;38.67;24.02;;;;;17.40;101197.00;;;;10461597;28;20192;-77
2021/07/15 13:35:12;;;;;;;38.97;24.35;;;;;17.30;101205.00;;;;10481461;28;20220;-78
2021/07/15 13:40:25;;;;;;;42.83;27.17;;;;;17.20;101203.00;;;;10464671;28;20189;-78
2021/07/15 13:45:27;;;;;;;35.58;26.27;;;;;17.10;101213.00;;;;10495164;28;20230;-77
2021/07/15 13:50:30;;;;;;;40.85;26.67;;;;;17.00;101209.00;;;;10498925;28;20203;-77
2021/07/15 13:55:32;;;;;;;39.60;24.25;;;;;17.00;101208.00;;;;10498387;28;20282;-77
2021/07/15 14:00:36;;;;;;;37.03;22.83;;;;;17.10;101221.00;;;;10474361;28;20197;-77
2021/07/15 14:05:38;;;;;;;37.47;22.40;;;;;17.10;101213.00;;;;10496437;28;20664;-78
2021/07/15 14:10:41;;;;;;;38.17;24.55;;;;;17.10;101221.00;;;;10498253;28;20196;-77
2021/07/15 14:15:45;;;;;;;39.70;24.35;;;;;17.10;101218.00;;;;10464478;28;20220;-77
2021/07/15 14:20:52;;;;;;;39.47;25.25;;;;;17.10;101215.00;;;;10494764;28;20203;-77
2021/07/15 14:26:00;;;;;;;33.55;23.00;;;;;17.00;101221.00;;;;10473627;28;20205;-77
2021/07/15 14:31:03;;;;;;;35.08;25.33;;;;;17.00;101232.00;;;;10489744;28;20297;-77
2021/07/15 14:36:11;;;;;;;34.70;24.38;;;;;17.10;101222.00;;;;10501132;28;20201;-77
2021/07/15 14:41:13;;;;;;;32.03;22.52;;;;;17.00;101233.00;;;;10483748;28;20190;-77
2021/07/15 14:46:16;;;;;;;39.50;25.17;;;;;17.20;101237.00;;;;10482099;28;20557;-76
2021/07/15 14:51:18;;;;;;;40.72;25.05;;;;;17.20;101238.00;;;;10481726;28;20208;-77
2021/07/15 14:56:22;;;;;;;37.63;21.75;;;;;17.30;101242.00;;;;10467650;28;20243;-77
2021/07/15 15:01:24;;;;;;;32.03;21.58;;;;;17.30;101245.00;;;;10475671;28;20193;-77
2021/07/15 15:06:26;;;;;;;33.55;22.13;;;;;17.20;101250.00;;;;10506191;28;20583;-78
2021/07/15 15:11:28;;;;;;;38.67;22.15;;;;;17.10;101264.00;;;;10470281;28;20208;-77
2021/07/15 15:16:31;;;;;;;28.63;20.75;;;;;17.00;101272.00;;;;10505625;28;20205;-77
2021/07/15 15:21:33;;;;;;;32.10;23.75;;;;;16.80;101272.00;;;;10461164;28;20663;-77
2021/07/15 15:26:36;;;;;;;37.40;22.70;;;;;16.90;101261.00;;;;10491048;28;20185;-77
2021/07/15 15:31:39;;;;;;;37.97;23.88;;;;;17.00;101258.00;;;;10474538;28;20828;-77
2021/07/15 15:36:41;;;;;;;34.83;22.40;;;;;16.90;101256.00;;;;10499087;28;20254;-78
2021/07/15 15:41:43;;;;;;;36.40;23.73;;;;;16.90;101269.00;;;;10487825;28;20197;-77
2021/07/15 15:47:08;;;;;;;32.80;24.10;;;;;16.90;101254.00;;;;10520846;28;20197;-77
2021/07/15 15:52:12;;;;;;;32.22;23.38;;;;;16.80;101270.00;;;;10504241;28;20211;-76
2021/07/15 15:57:15;;;;;;;34.65;21.77;;;;;16.80;101278.00;;;;10503991;28;20572;-77
2021/07/15 16:02:16;;;;;;;34.25;22.25;;;;;16.70;101274.00;;;;10462212;28;20204;-77
2021/07/15 16:07:18;;;;;;;32.83;20.20;;;;;16.70;101274.00;;;;10480069;28;20177;-76
2021/07/15 16:12:22;;;;;;;37.60;24.58;;;;;16.80;101277.00;;;;10482942;28;20659;-77
2021/07/15 16:17:24;;;;;;;31.27;20.98;;;;;16.80;101278.00;;;;10501706;28;20561;-77
2021/07/15 16:22:26;;;;;;;28.42;20.05;;;;;16.70;101283.00;;;;10491552;28;20193;-77
2021/07/15 16:27:28;;;;;;;39.50;22.20;;;;;16.80;101282.00;;;;10472988;28;20602;-77
2021/07/15 16:32:31;;;;;;;32.75;22.25;;;;;16.80;101284.00;;;;10475483;28;20561;-77
2021/07/15 16:37:33;;;;;;;37.97;21.55;;;;;16.90;101272.00;;;;10497879;28;20308;-78
2021/07/15 16:42:36;;;;;;;35.35;20.65;;;;;16.80;101287.00;;;;10490808;28;20208;-77
2021/07/15 16:47:38;;;;;;;32.20;19.25;;;;;16.60;101287.00;;;;10494258;28;20186;-77
2021/07/15 16:52:42;;;;;;;31.85;20.60;;;;;16.50;101306.00;;;;10495703;28;20200;-78
2021/07/15 16:57:45;;;;;;;33.22;20.60;;;;;16.50;101314.00;;;;10514581;28;20754;-77
2021/07/15 17:02:47;;;;;;;29.42;18.15;;;;;16.40;101315.00;;;;10471310;28;20194;-77
2021/07/15 17:07:49;;;;;;;32.50;19.02;;;;;16.50;101317.00;;;;10440783;28;20230;-77
2021/07/15 17:12:51;;;;;;;29.73;18.08;;;;;16.50;101303.00;;;;10484560;28;20205;-77
2021/07/15 17:17:53;;;;;;;32.78;18.13;;;;;16.40;101312.00;;;;10458608;28;20276;-78
2021/07/15 17:22:55;;;;;;;28.40;19.25;;;;;16.30;101316.00;;;;10487396;28;20196;-77
2021/07/15 17:27:59;;;;;;;26.85;18.50;;;;;16.30;101324.00;;;;10493304;28;20653;-78
2021/07/15 17:33:01;;;;;;;26.67;18.13;;;;;16.20;101315.00;;;;10472486;28;20291;-77
2021/07/15 17:38:04;;;;;;;25.67;19.83;;;;;16.20;101318.00;;;;10478867;28;20308;-77
2021/07/15 17:43:06;;;;;;;26.58;19.00;;;;;16.30;101324.00;;;;10462313;28;20213;-77
2021/07/15 17:48:08;;;;;;;28.73;20.85;;;;;16.20;101320.00;;;;10443729;28;20204;-77
2021/07/15 17:53:10;;;;;;;26.65;18.05;;;;;16.10;101325.00;;;;10513540;28;20197;-77
2021/07/15 17:58:12;;;;;;;33.28;22.63;;;;;16.20;101338.00;;;;10493002;28;20254;-76
2021/07/15 18:03:14;;;;;;;32.10;23.08;;;;;16.20;101333.00;;;;10479364;28;20227;-76
2021/07/15 18:08:16;;;;;;;35.28;23.65;;;;;16.10;101323.00;;;;10506155;28;20207;-76
2021/07/15 18:13:18;;;;;;;32.47;21.38;;;;;16.10;101335.00;;;;10483970;28;20200;-76
2021/07/15 18:18:23;;;;;;;31.65;23.20;;;;;16.10;101338.00;;;;10460542;28;20842;-75
2021/07/15 18:23:25;;;;;;;28.60;21.27;;;;;16.10;101347.00;;;;10489611;28;20247;-76
2021/07/15 18:28:27;;;;;;;40.13;24.42;;;;;16.10;101345.00;;;;10507687;28;20235;-75
2021/07/15 18:33:29;;;;;;;33.55;23.67;;;;;16.20;101347.00;;;;10499398;28;20236;-75
2021/07/15 18:38:31;;;;;;;40.15;24.25;;;;;16.20;101341.00;;;;10485715;28;20914;-75
2021/07/15 18:43:34;;;;;;;38.88;27.00;;;;;16.20;101340.00;;;;10495200;28;20212;-75
2021/07/15 18:48:35;;;;;;;46.78;26.27;;;;;16.20;101335.00;;;;10463137;28;20239;-75
2021/07/15 18:53:37;;;;;;;43.20;28.17;;;;;16.20;101340.00;;;;10482518;28;20521;-76
2021/07/15 18:58:39;;;;;;;42.10;27.30;;;;;16.20;101359.00;;;;10471329;28;20257;-75
2021/07/15 19:03:41;;;;;;;38.53;28.60;;;;;16.20;101355.00;;;;10479676;28;20200;-76
2021/07/15 19:08:43;;;;;;;43.90;28.23;;;;;16.20;101347.00;;;;10477881;28;20189;-76
2021/07/15 19:13:45;;;;;;;49.17;30.35;;;;;16.20;101355.00;;;;10482105;28;20684;-76
2021/07/15 19:18:47;;;;;;;50.55;30.85;;;;;16.20;101366.00;;;;10496366;28;20304;-75
2021/07/15 19:23:49;;;;;;;47.65;30.02;;;;;16.30;101371.00;;;;10517431;28;20204;-75
2021/07/15 19:28:51;;;;;;;51.35;31.75;;;;;16.30;101380.00;;;;10515682;28;20205;-75
2021/07/15 19:33:53;;;;;;;55.40;32.92;;;;;16.30;101385.00;;;;10467997;28;20216;-76
2021/07/15 19:38:55;;;;;;;43.70;30.25;;;;;16.30;101395.00;;;;10465776;28;20189;-75
2021/07/15 19:43:57;;;;;;;54.97;32.03;;;;;16.40;101399.00;;;;10466479;28;20585;-77
2021/07/15 19:48:59;;;;;;;53.28;30.58;;;;;16.40;101411.00;;;;10489726;28;20206;-76
2021/07/15 19:54:02;;;;;;;52.55;30.13;;;;;16.40;101420.00;;;;10461578;28;20684;-77
2021/07/15 19:59:05;;;;;;;50.08;25.95;;;;;16.40;101426.00;;;;10483254;28;20205;-76
2021/07/15 20:04:07;;;;;;;45.05;26.98;;;;;16.40;101428.00;;;;10511854;28;20197;-76
2021/07/15 20:09:09;;;;;;;40.67;26.48;;;;;16.40;101434.00;;;;10477761;28;20200;-76
2021/07/15 20:14:11;;;;;;;43.10;26.70;;;;;16.50;101447.00;;;;10442442;28;20255;-77
2021/07/15 20:19:13;;;;;;;40.38;25.92;;;;;16.50;101449.00;;;;10477706;28;20193;-77
2021/07/15 20:24:15;;;;;;;43.40;25.45;;;;;16.40;101459.00;;;;10478579;28;20239;-76
2021/07/15 20:29:17;;;;;;;40.97;25.83;;;;;16.40;101464.00;;;;10472719;28;20202;-76
2021/07/15 20:34:19;;;;;;;43.30;28.17;;;;;16.40;101467.00;;;;10464074;28;20232;-76
2021/07/15 20:39:21;;;;;;;41.63;26.88;;;;;16.40;101467.00;;;;10466392;28;20204;-77
2021/07/15 20:44:23;;;;;;;40.80;24.85;;;;;16.50;101468.00;;;;10499949;28;20197;-76
2021/07/15 20:49:26;;;;;;;41.08;27.63;;;;;16.40;101468.00;;;;10478842;28;20197;-76
2021/07/15 20:54:28;;;;;;;44.42;28.70;;;;;16.40;101477.00;;;;10480736;28;20316;-76
2021/07/15 20:59:30;;;;;;;41.28;28.40;;;;;16.40;101481.00;;;;10491932;28;20185;-76
2021/07/15 21:04:32;;;;;;;46.40;27.10;;;;;16.40;101487.00;;;;10476400;28;20275;-75
2021/07/15 21:09:34;;;;;;;44.63;25.08;;;;;16.30;101494.00;;;;10479413;28;20200;-76
2021/07/15 21:14:36;;;;;;;41.35;26.20;;;;;16.30;101507.00;;;;10482022;28;20200;-76
2021/07/15 21:19:38;;;;;;;38.53;23.90;;;;;16.30;101501.00;;;;10482369;28;20196;-76
2021/07/15 21:24:41;;;;;;;42.60;24.42;;;;;16.20;101505.00;;;;10474446;28;20208;-76
2021/07/15 21:29:43;;;;;;;39.90;22.95;;;;;16.20;101512.00;;;;10499747;28;20189;-76
2021/07/15 21:34:45;;;;;;;36.92;25.65;;;;;16.20;101520.00;;;;10498910;28;20550;-76
2021/07/15 21:39:46;;;;;;;37.35;21.63;;;;;16.20;101515.00;;;;10504074;28;20196;-76
2021/07/15 21:44:48;;;;;;;39.30;23.70;;;;;16.10;101518.00;;;;10507522;28;20203;-77
2021/07/15 21:49:50;;;;;;;45.03;22.02;;;;;16.10;101524.00;;;;10493039;28;20189;-76
2021/07/15 21:54:52;;;;;;;40.92;23.17;;;;;16.10;101521.00;;;;10519053;28;20208;-75
2021/07/15 21:59:54;;;;;;;39.75;23.75;;;;;16.10;101528.00;;;;10509057;28;20262;-77
2021/07/15 22:04:56;;;;;;;37.58;21.88;;;;;16.10;101525.00;;;;10509667;28;20189;-76
2021/07/15 22:09:58;;;;;;;38.13;22.85;;;;;16.10;101516.00;;;;10505341;28;20670;-77
2021/07/15 22:15:00;;;;;;;34.17;20.88;;;;;16.10;101504.00;;;;10528262;28;20205;-76
2021/07/15 22:20:06;;;;;;;30.85;20.58;;;;;16.00;101505.00;;;;10510745;28;20201;-77
2021/07/15 22:25:12;;;;;;;35.80;17.13;;;;;16.00;101508.00;;;;10478563;28;20644;-79
2021/07/15 22:30:17;;;;;;;32.67;18.58;;;;;16.00;101518.00;;;;10509465;28;20193;-76
2021/07/15 22:35:22;;;;;;;22.67;15.05;;;;;16.00;101526.00;;;;10464804;28;20263;-77
2021/07/15 22:40:24;;;;;;;27.63;15.65;;;;;15.90;101537.00;;;;10487345;28;20190;-77
2021/07/15 22:45:26;;;;;;;29.02;16.38;;;;;15.80;101533.00;;;;10521953;28;20253;-78
2021/07/15 22:50:28;;;;;;;24.45;16.70;;;;;15.80;101511.00;;;;10498003;28;20184;-78
2021/07/15 22:55:30;;;;;;;29.08;17.38;;;;;15.70;101565.00;;;;10466128;28;20208;-76
2021/07/15 23:00:36;;;;;;;32.45;17.30;;;;;15.70;101568.00;;;;10520994;28;20196;-78
2021/07/15 23:05:39;;;;;;;28.02;17.52;;;;;15.70;101560.00;;;;10503725;28;20244;-78
2021/07/15 23:10:42;;;;;;;25.10;17.60;;;;;15.70;101517.00;;;;10511387;28;20829;-78
2021/07/15 23:15:44;;;;;;;20.73;14.35;;;;;15.70;101554.00;;;;10544334;28;20197;-76
2021/07/15 23:20:46;;;;;;;29.58;16.80;;;;;15.60;101565.00;;;;10470197;28;20198;-75
2021/07/15 23:25:48;;;;;;;26.23;18.13;;;;;15.60;101569.00;;;;10489523;28;20665;-76
2021/07/15 23:30:50;;;;;;;27.58;17.25;;;;;15.60;101569.00;;;;10470523;28;20181;-79
2021/07/15 23:35:52;;;;;;;26.25;16.80;;;;;15.60;101558.00;;;;10479583;28;20580;-76
2021/07/15 23:40:54;;;;;;;28.58;17.40;;;;;15.60;101571.00;;;;10466245;28;20610;-76
2021/07/15 23:45:56;;;;;;;34.75;18.58;;;;;15.60;101570.00;;;;10466555;28;20229;-75
2021/07/15 23:50:58;;;;;;;29.60;17.70;;;;;15.60;101568.00;;;;10480599;28;20189;-77
2021/07/15 23:56:00;;;;;;;29.02;18.02;;;;;15.60;101548.00;;;;10484195;28;20258;-78
